Time;durP1;ratioP1;P1;durP2;ratioP2;P2;SDS_P1;SDS_P2;PMS_P1;PMS_P2;Temp;Humidity;BMP_temperature;BMP_pressure;BME280_temperature;BME280_humidity;BME280_pressure;Samples;Min_cycle;Max_cycle;Signal;HPM_P1;HPM_P2
2024/03/24 00:01:04;;;;;;;50.17;15.27;;;;;;;6.46;100.00;97215.16;4949839;28;20086;-60
2024/03/24 00:03:29;;;;;;;35.65;12.45;;;;;;;6.70;100.00;97203.97;4952109;28;20278;-62
2024/03/24 00:05:54;;;;;;;34.50;9.02;;;;;;;6.59;100.00;97214.31;4948099;28;20109;-61
2024/03/24 00:08:20;;;;;;;41.95;10.18;;;;;;;6.56;100.00;97206.56;4951681;28;20345;-60
2024/03/24 00:10:45;;;;;;;85.47;18.77;;;;;;;6.45;100.00;97197.94;4950200;28;20039;-61
2024/03/24 00:13:10;;;;;;;38.53;12.20;;;;;;;6.76;100.00;97190.19;4952737;28;20604;-63
2024/03/24 00:15:36;;;;;;;71.65;11.77;;;;;;;6.75;100.00;97191.91;4948777;28;20031;-59
2024/03/24 00:18:01;;;;;;;36.58;11.57;;;;;;;6.70;100.00;97182.44;4952741;28;20373;-59
2024/03/24 00:20:26;;;;;;;58.75;11.90;;;;;;;6.50;100.00;97185.91;4949220;28;20027;-61
2024/03/24 00:22:52;;;;;;;73.57;11.65;;;;;;;6.27;100.00;97191.88;4951796;28;20199;-60
2024/03/24 00:25:17;;;;;;;49.08;12.02;;;;;;;6.83;100.00;97188.47;4952237;28;20031;-58
2024/03/24 00:27:43;;;;;;;76.47;14.32;;;;;;;6.60;100.00;97187.59;4948611;28;20444;-62
2024/03/24 00:30:09;;;;;;;46.25;10.98;;;;;;;6.74;100.00;97184.16;4949196;28;20027;-62
2024/03/24 00:32:34;;;;;;;46.55;12.43;;;;;;;6.56;100.00;97182.44;4949390;28;20070;-60
2024/03/24 00:34:59;;;;;;;33.10;8.82;;;;;;;6.50;100.00;97172.97;4953739;28;20113;-61
2024/03/24 00:37:25;;;;;;;42.60;9.25;;;;;;;6.59;100.00;97162.63;4951566;28;20033;-63
2024/03/24 00:39:52;;;;;;;76.40;13.07;;;;;;;6.69;100.00;97166.06;4952311;28;20030;-61
2024/03/24 00:42:18;;;;;;;38.10;8.70;;;;;;;6.33;100.00;97162.63;4952337;28;20079;-60
2024/03/24 00:44:43;;;;;;;56.83;11.38;;;;;;;6.92;100.00;97162.59;4953406;28;20567;-61
2024/03/24 00:47:08;;;;;;;51.72;11.98;;;;;;;6.66;100.00;97155.75;4956316;28;20074;-60
2024/03/24 00:49:33;;;;;;;35.03;13.75;;;;;;;6.49;100.00;97153.16;4962183;28;20110;-60
2024/03/24 00:51:59;;;;;;;40.97;10.63;;;;;;;6.34;100.00;97159.19;4953080;28;20522;-59
2024/03/24 00:54:24;;;;;;;50.78;13.20;;;;;;;6.71;100.00;97151.41;4953104;28;20031;-60
2024/03/24 00:56:49;;;;;;;53.67;11.30;;;;;;;6.57;100.00;97146.25;4952210;28;20194;-59
2024/03/24 00:59:15;;;;;;;38.80;10.68;;;;;;;6.53;100.00;97141.13;4951581;28;20073;-61
2024/03/24 01:01:40;;;;;;;65.53;13.20;;;;;;;6.36;100.00;97126.47;4981614;28;20072;-63
2024/03/24 01:04:05;;;;;;;42.33;10.88;;;;;;;6.34;100.00;97139.41;4952299;28;20070;-61
2024/03/24 01:06:31;;;;;;;25.48;11.55;;;;;;;6.34;100.00;97125.59;4951161;28;20041;-61
2024/03/24 01:08:57;;;;;;;41.08;11.77;;;;;;;6.31;100.00;97123.03;4952455;28;20061;-59
2024/03/24 01:11:22;;;;;;;46.80;12.70;;;;;;;6.11;100.00;97131.63;4952370;28;20035;-61
2024/03/24 01:13:48;;;;;;;57.78;11.93;;;;;;;6.01;100.00;97117.81;4951294;28;20035;-60
2024/03/24 01:16:14;;;;;;;65.82;52.28;;;;;;;6.15;100.00;97111.84;4950080;28;20105;-59
2024/03/24 01:18:39;;;;;;;55.45;11.73;;;;;;;6.21;100.00;97106.69;4952919;28;20492;-59
2024/03/24 01:21:06;;;;;;;41.08;11.07;;;;;;;6.23;100.00;97104.94;4951762;28;20109;-58
2024/03/24 01:23:32;;;;;;;39.75;15.00;;;;;;;6.26;100.00;97099.78;4952736;28;20027;-60
2024/03/24 01:25:57;;;;;;;41.00;11.85;;;;;;;6.12;100.00;97104.94;4951685;28;20083;-59
2024/03/24 01:28:22;;;;;;;44.10;9.15;;;;;;;6.49;100.00;97099.78;4952513;28;20031;-60
2024/03/24 01:30:48;;;;;;;57.33;11.40;;;;;;;6.35;100.00;97093.78;4952900;28;20049;-61
2024/03/24 01:33:13;;;;;;;46.33;13.85;;;;;;;6.30;100.00;97091.19;4982665;28;20041;-60
2024/03/24 01:35:46;;;;;;;63.10;10.95;;;;;;;6.25;100.00;97098.09;4983455;28;20031;-62
2024/03/24 01:38:11;;;;;;;31.17;12.20;;;;;;;6.24;100.00;97094.63;4949943;28;20024;-59
2024/03/24 01:40:36;;;;;;;36.38;10.70;;;;;;;6.18;100.00;97093.78;4952004;28;20687;-59
2024/03/24 01:43:06;;;;;;;37.63;8.93;;;;;;;6.15;100.00;97091.19;4952125;28;20042;-60
2024/03/24 01:45:32;;;;;;;50.38;15.15;;;;;;;6.16;100.00;97080.00;4952488;28;20557;-60
2024/03/24 01:47:58;;;;;;;43.53;10.68;;;;;;;6.20;100.00;97076.56;4950197;28;20031;-59
2024/03/24 01:50:24;;;;;;;51.40;14.80;;;;;;;6.25;100.00;97075.72;4952669;28;20057;-60
2024/03/24 01:52:49;;;;;;;49.22;10.85;;;;;;;6.21;100.00;97075.69;4955541;28;20447;-60
2024/03/24 01:55:15;;;;;;;36.92;10.80;;;;;;;6.24;100.00;97067.97;4955026;28;20488;-62
2024/03/24 01:57:40;;;;;;;56.08;11.02;;;;;;;6.30;100.00;97065.34;4956966;28;20058;-61
2024/03/24 02:00:08;;;;;;;51.58;11.18;;;;;;;6.14;100.00;97058.47;4956055;28;20027;-59
2024/03/24 02:02:33;;;;;;;55.92;11.98;;;;;;;6.22;100.00;97056.75;4953616;28;20299;-58
2024/03/24 02:04:58;;;;;;;37.40;11.77;;;;;;;6.29;100.00;97057.59;4955099;28;20407;-61
2024/03/24 02:07:24;;;;;;;36.63;11.05;;;;;;;6.19;100.00;97051.59;4960309;28;20039;-61
2024/03/24 02:09:49;;;;;;;58.65;11.68;;;;;;;6.09;100.00;97046.44;4956707;28;20459;-61
2024/03/24 02:12:14;;;;;;;29.98;9.25;;;;;;;5.92;100.00;97048.13;4955153;28;20445;-60
2024/03/24 02:14:40;;;;;;;48.40;12.27;;;;;;;5.95;100.00;97048.16;4954724;28;20445;-60
2024/03/24 02:17:05;;;;;;;53.33;12.85;;;;;;;6.12;100.00;97043.88;4955325;28;20566;-61
2024/03/24 02:19:30;;;;;;;42.67;13.52;;;;;;;6.08;100.00;97042.16;4956239;28;20694;-60
2024/03/24 02:21:56;;;;;;;58.47;12.45;;;;;;;5.78;100.00;97036.09;4954026;28;20039;-60
2024/03/24 02:24:21;;;;;;;33.88;9.95;;;;;;;5.95;100.00;97030.06;4955603;28;20444;-58
2024/03/24 02:26:47;;;;;;;64.53;11.55;;;;;;;5.94;100.00;97031.78;4954784;28;20038;-61
2024/03/24 02:29:13;;;;;;;40.38;9.52;;;;;;;5.75;100.00;97030.91;4955151;28;20154;-60
2024/03/24 02:31:40;;;;;;;42.42;11.13;;;;;;;5.75;100.00;97020.59;4953266;28;20581;-59
2024/03/24 02:34:05;;;;;;;44.55;10.60;;;;;;;5.60;100.00;97019.75;4954223;28;20023;-58
2024/03/24 02:36:31;;;;;;;46.15;10.30;;;;;;;5.54;100.00;97026.63;4954903;28;20403;-60
2024/03/24 02:38:57;;;;;;;55.50;10.82;;;;;;;5.60;100.00;97013.72;4955904;28;20058;-63
2024/03/24 02:41:24;;;;;;;47.60;11.98;;;;;;;5.89;100.00;97019.75;4953641;28;20059;-61
2024/03/24 02:43:49;;;;;;;50.60;11.43;;;;;;;5.66;100.00;97018.03;4953681;28;20070;-60
2024/03/24 02:46:15;;;;;;;35.30;11.15;;;;;;;5.79;100.00;97012.00;4954430;28;20042;-60
2024/03/24 02:48:40;;;;;;;47.95;11.48;;;;;;;5.83;100.00;97011.16;4953680;28;20024;-60
2024/03/24 02:51:05;;;;;;;44.55;8.63;;;;;;;5.50;100.00;97005.13;4983211;28;20043;-62
2024/03/24 02:53:31;;;;;;;41.53;12.10;;;;;;;5.65;100.00;96996.53;4954753;28;20126;-59
2024/03/24 02:55:56;;;;;;;47.20;10.68;;;;;;;5.69;100.00;97000.84;4954735;28;20035;-59
2024/03/24 02:58:21;;;;;;;43.88;10.40;;;;;;;5.68;100.00;96987.94;4951924;28;20034;-58
2024/03/24 03:00:47;;;;;;;61.50;12.85;;;;;;;5.48;100.00;96986.19;4952613;28;20072;-62
2024/03/24 03:03:12;;;;;;;48.75;10.55;;;;;;;5.48;100.00;96981.03;4953954;28;20029;-59
2024/03/24 03:05:38;;;;;;;46.05;10.02;;;;;;;5.50;100.00;96981.91;4953804;28;20031;-60
2024/03/24 03:08:04;;;;;;;26.05;8.82;;;;;;;5.48;100.00;96981.03;4952239;28;20121;-61
2024/03/24 03:10:32;;;;;;;66.40;14.65;;;;;;;5.81;100.00;96979.34;4951972;28;20122;-59
2024/03/24 03:12:59;;;;;;;54.47;12.00;;;;;;;5.96;100.00;96969.84;4954065;28;20023;-59
2024/03/24 03:15:27;;;;;;;45.97;11.60;;;;;;;5.84;100.00;96974.19;4954637;28;21060;-62
2024/03/24 03:17:53;;;;;;;67.60;11.50;;;;;;;5.84;100.00;96976.75;4951503;28;20043;-60
2024/03/24 03:20:19;;;;;;;40.50;11.77;;;;;;;5.69;100.00;96972.47;4952132;28;20264;-58
2024/03/24 03:22:45;;;;;;;56.53;11.63;;;;;;;5.51;100.00;96968.16;4951986;28;20027;-62
2024/03/24 03:25:11;;;;;;;40.00;12.15;;;;;;;5.67;100.00;96960.41;4953244;28;20647;-60
2024/03/24 03:27:36;;;;;;;43.78;15.55;;;;;;;5.61;100.00;96966.44;4953918;28;20511;-59
2024/03/24 03:30:03;;;;;;;75.10;54.72;;;;;;;5.37;100.00;96967.25;4953182;28;20438;-61
2024/03/24 03:32:28;;;;;;;45.95;10.27;;;;;;;5.20;100.00;96974.13;4952853;28;20097;-61
2024/03/24 03:34:54;;;;;;;40.42;11.50;;;;;;;4.94;100.00;96967.19;4951890;28;20065;-60
2024/03/24 03:37:21;;;;;;;66.80;18.00;;;;;;;5.13;100.00;96972.41;4952019;28;20068;-61
2024/03/24 03:39:47;;;;;;;56.67;11.50;;;;;;;4.90;100.00;96969.78;4951409;28;20505;-61
2024/03/24 03:42:13;;;;;;;31.50;9.70;;;;;;;4.82;100.00;96973.19;4951710;28;20514;-60
2024/03/24 03:44:39;;;;;;;54.10;12.48;;;;;;;4.97;100.00;96974.06;4954345;28;20488;-60
2024/03/24 03:47:05;;;;;;;41.33;15.00;;;;;;;4.94;100.00;96966.38;4951317;28;20062;-59
2024/03/24 03:49:30;;;;;;;42.35;12.13;;;;;;;4.64;100.00;96965.41;4954474;28;20038;-60
2024/03/24 03:51:58;;;;;;;67.00;33.28;;;;;;;4.66;100.00;96958.53;4954196;28;20585;-59
2024/03/24 03:54:24;;;;;;;64.00;33.97;;;;;;;4.27;100.00;96966.09;4952964;28;20034;-59
2024/03/24 03:56:50;;;;;;;63.42;12.45;;;;;;;4.58;100.00;96965.38;4952805;28;20208;-59
2024/03/24 03:59:16;;;;;;;66.60;39.85;;;;;;;4.46;100.00;96956.75;4951692;28;20084;-61
2024/03/24 04:01:41;;;;;;;35.85;10.48;;;;;;;4.72;100.00;96953.41;4953932;28;20049;-60
2024/03/24 04:04:08;;;;;;;46.78;11.02;;;;;;;4.65;100.00;96954.25;4953870;28;20038;-63
2024/03/24 04:06:34;;;;;;;114.70;82.70;;;;;;;4.50;100.00;96963.66;4952692;28;20470;-60
2024/03/24 04:09:00;;;;;;;87.45;42.83;;;;;;;4.75;100.00;96961.13;4954099;28;20042;-60
2024/03/24 04:11:25;;;;;;;170.77;143.35;;;;;;;5.11;100.00;96962.94;4949887;28;20312;-61
2024/03/24 04:13:50;;;;;;;84.20;44.78;;;;;;;5.00;100.00;96950.03;4953508;28;20069;-60
2024/03/24 04:16:20;;;;;;;41.38;19.75;;;;;;;4.66;100.00;96950.81;4952754;28;20035;-60
2024/03/24 04:18:46;;;;;;;51.22;11.40;;;;;;;4.39;100.00;96949.84;4983542;28;20026;-57
2024/03/24 04:21:12;;;;;;;45.40;39.63;;;;;;;4.78;100.00;96945.69;4951387;28;20070;-62
2024/03/24 04:23:37;;;;;;;38.20;19.00;;;;;;;4.68;100.00;96939.66;4950990;28;20562;-59
2024/03/24 04:26:03;;;;;;;57.78;21.38;;;;;;;4.80;100.00;96945.72;4951948;28;20042;-62
2024/03/24 04:28:28;;;;;;;40.47;13.07;;;;;;;4.82;100.00;96949.13;4952290;28;20499;-60
2024/03/24 04:30:53;;;;;;;44.38;11.18;;;;;;;4.86;100.00;96940.56;4953357;28;20035;-62
2024/03/24 04:33:19;;;;;;;49.83;10.95;;;;;;;4.95;100.00;96944.88;4954010;28;20493;-62
2024/03/24 04:35:44;;;;;;;79.47;57.30;;;;;;;5.02;100.00;96946.63;4952363;28;20051;-60
2024/03/24 04:38:10;;;;;;;41.58;8.68;;;;;;;4.89;100.00;96945.72;4954277;28;20174;-60
2024/03/24 04:40:35;;;;;;;65.82;15.85;;;;;;;4.74;100.00;96954.28;4952119;28;20039;-60
2024/03/24 04:43:02;;;;;;;56.78;16.38;;;;;;;4.76;100.00;96944.84;4953170;28;20078;-60
2024/03/24 04:45:27;;;;;;;46.95;11.57;;;;;;;4.68;100.00;96949.13;4951902;28;20038;-61
2024/03/24 04:47:52;;;;;;;58.83;12.43;;;;;;;4.74;100.00;96949.13;4951538;28;20031;-60
2024/03/24 04:50:18;;;;;;;31.88;8.32;;;;;;;4.50;100.00;96947.31;4951889;28;20030;-60
2024/03/24 04:52:44;;;;;;;40.97;8.38;;;;;;;4.60;100.00;96958.53;4952322;28;20019;-59
2024/03/24 04:55:09;;;;;;;81.43;67.72;;;;;;;4.84;100.00;96951.72;4952341;28;20035;-61
2024/03/24 04:57:35;;;;;;;40.88;11.80;;;;;;;4.74;100.00;96959.41;4953946;28;20264;-59
2024/03/24 05:00:00;;;;;;;62.67;11.57;;;;;;;4.88;100.00;96954.31;4954245;28;20395;-62
2024/03/24 05:02:25;;;;;;;44.55;16.23;;;;;;;4.86;100.00;96961.16;4952610;28;20031;-59
2024/03/24 05:04:51;;;;;;;139.55;93.65;;;;;;;4.79;100.00;96962.88;4951990;28;20031;-60
2024/03/24 05:07:17;;;;;;;38.65;12.82;;;;;;;4.68;100.00;96965.41;4952208;28;20266;-60
2024/03/24 05:09:43;;;;;;;33.47;15.23;;;;;;;4.83;100.00;96968.91;4953448;28;20018;-60
2024/03/24 05:12:09;;;;;;;44.75;19.00;;;;;;;4.44;100.00;96968.75;4949908;28;20116;-62
2024/03/24 05:14:35;;;;;;;40.53;9.48;;;;;;;4.67;100.00;96973.13;4949469;28;20007;-61
2024/03/24 05:17:02;;;;;;;53.42;13.90;;;;;;;4.93;100.00;96962.91;4951684;28;20035;-60
2024/03/24 05:19:27;;;;;;;38.42;13.70;;;;;;;4.69;100.00;96971.44;4952478;28;20062;-60
2024/03/24 05:21:53;;;;;;;64.63;17.23;;;;;;;4.48;100.00;96969.59;4951676;28;20058;-61
2024/03/24 05:24:18;;;;;;;41.92;14.60;;;;;;;4.62;100.00;96967.97;4953506;28;20038;-59
2024/03/24 05:26:43;;;;;;;30.58;16.42;;;;;;;4.58;100.00;96965.38;4955017;28;20065;-60
2024/03/24 05:29:09;;;;;;;49.70;18.98;;;;;;;4.85;100.00;96961.16;4952335;28;20031;-62
2024/03/24 05:31:34;;;;;;;45.40;12.57;;;;;;;4.78;100.00;96974.03;4952981;28;20043;-59
2024/03/24 05:34:00;;;;;;;51.05;24.17;;;;;;;5.00;100.00;96963.78;4955032;28;20026;-60
2024/03/24 05:36:27;;;;;;;40.60;13.80;;;;;;;4.84;100.00;96964.59;4956824;28;20355;-61
2024/03/24 05:38:52;;;;;;;72.90;42.72;;;;;;;4.99;100.00;96969.81;4956703;28;20039;-60
2024/03/24 05:41:17;;;;;;;29.92;9.02;;;;;;;4.90;100.00;96973.19;4955767;28;20063;-61
2024/03/24 05:43:43;;;;;;;49.92;9.25;;;;;;;4.33;100.00;96972.97;4957011;28;20045;-62
2024/03/24 05:46:08;;;;;;;36.90;11.38;;;;;;;4.51;100.00;96979.94;4953132;28;20113;-61
2024/03/24 05:48:34;;;;;;;38.13;9.80;;;;;;;4.81;100.00;96979.19;4954103;28;20031;-60
2024/03/24 05:51:04;;;;;;;62.00;12.30;;;;;;;4.71;100.00;96972.28;4954935;28;20587;-61
2024/03/24 05:53:32;;;;;;;38.88;8.73;;;;;;;4.49;100.00;96959.31;4956794;28;20027;-60
2024/03/24 05:56:00;;;;;;;65.68;18.17;;;;;;;4.76;100.00;96970.59;4953602;28;20043;-59
2024/03/24 05:58:26;;;;;;;39.10;9.85;;;;;;;4.84;100.00;96968.03;4953801;28;20026;-63
2024/03/24 06:00:52;;;;;;;53.90;11.25;;;;;;;4.77;100.00;96969.75;4954520;28;20035;-61
2024/03/24 06:03:17;;;;;;;38.35;9.48;;;;;;;5.05;100.00;96972.38;4954382;28;20031;-61
2024/03/24 06:05:43;;;;;;;41.75;9.23;;;;;;;5.30;100.00;96969.84;4954193;28;20067;-62
2024/03/24 06:08:09;;;;;;;31.45;10.23;;;;;;;5.26;100.00;96969.84;4956690;28;20483;-60
2024/03/24 06:10:35;;;;;;;56.55;11.73;;;;;;;5.44;100.00;96969.00;4954618;28;20526;-60
2024/03/24 06:13:00;;;;;;;67.75;12.38;;;;;;;5.27;100.00;96972.41;4954095;28;20031;-59
2024/03/24 06:15:26;;;;;;;36.90;8.40;;;;;;;5.66;100.00;96971.59;4954507;28;20039;-58
2024/03/24 06:17:51;;;;;;;67.80;12.07;;;;;;;6.04;100.00;96969.84;4955910;28;20029;-60
2024/03/24 06:20:17;;;;;;;27.33;9.10;;;;;;;5.90;100.00;96977.59;4953723;28;20370;-57
2024/03/24 06:22:42;;;;;;;38.25;11.23;;;;;;;6.27;100.00;96969.81;4957263;28;20035;-60
2024/03/24 06:25:08;;;;;;;41.78;11.43;;;;;;;6.25;100.00;96962.09;4954423;28;20121;-61
2024/03/24 06:27:34;;;;;;;33.95;9.00;;;;;;;6.16;100.00;96974.16;4957047;28;20105;-59
2024/03/24 06:29:59;;;;;;;53.38;12.10;;;;;;;6.03;100.00;96968.13;4955454;28;20070;-59
2024/03/24 06:32:24;;;;;;;41.13;9.63;;;;;;;6.18;100.00;96973.28;4953269;28;20110;-60
2024/03/24 06:34:50;;;;;;;41.38;10.93;;;;;;;6.34;100.00;96962.91;4952320;28;20031;-60
2024/03/24 06:37:16;;;;;;;45.72;9.40;;;;;;;6.29;100.00;96965.50;4951758;28;20050;-59
2024/03/24 06:39:42;;;;;;;41.05;11.23;;;;;;;6.27;100.00;96966.38;4956762;28;20105;-58
2024/03/24 06:42:08;;;;;;;30.58;9.82;;;;;;;6.52;100.00;96967.16;4954114;28;20456;-59
2024/03/24 06:44:37;;;;;;;45.78;9.35;;;;;;;6.94;100.00;96960.97;4951170;28;20066;-59
2024/03/24 06:47:05;;;;;;;54.45;10.77;;;;;;;7.24;100.00;96966.81;4951125;28;20333;-61
2024/03/24 06:49:31;;;;;;;28.70;9.75;;;;;;;6.60;100.00;96968.00;4954713;28;20081;-59
2024/03/24 06:51:56;;;;;;;57.13;12.50;;;;;;;6.41;100.00;96972.38;4951486;28;20714;-60
2024/03/24 06:54:21;;;;;;;43.40;16.75;;;;;;;6.86;100.00;96956.69;4954277;28;20031;-58
2024/03/24 06:56:47;;;;;;;28.48;10.20;;;;;;;6.74;100.00;96960.19;4952803;28;20073;-60
2024/03/24 06:59:12;;;;;;;39.42;9.65;;;;;;;7.16;100.00;96959.94;4955003;28;20026;-60
2024/03/24 07:01:37;;;;;;;31.45;9.82;;;;;;;7.52;100.00;96957.13;4951867;28;20039;-60
2024/03/24 07:04:03;;;;;;;64.82;12.60;;;;;;;7.59;100.00;96957.94;4952530;28;20031;-62
2024/03/24 07:06:29;;;;;;;43.28;14.35;;;;;;;8.90;100.00;96961.78;4953977;28;20030;-59
2024/03/24 07:08:54;;;;;;;54.83;9.50;;;;;;;8.53;100.00;96967.41;4952493;28;20037;-61
2024/03/24 07:11:19;;;;;;;29.67;8.82;;;;;;;8.44;100.00;96958.84;4955241;28;20066;-60
2024/03/24 07:13:45;;;;;;;52.53;11.45;;;;;;;8.79;100.00;96968.81;4955261;28;20126;-60
2024/03/24 07:16:10;;;;;;;36.00;11.30;;;;;;;8.40;100.00;96967.53;4953119;28;20035;-59
2024/03/24 07:18:35;;;;;;;32.83;10.68;;;;;;;8.34;100.00;96962.41;4954332;28;20500;-59
2024/03/24 07:21:02;;;;;;;73.15;13.93;;;;;;;8.81;100.00;96965.34;4954767;28;20356;-59
2024/03/24 07:23:28;;;;;;;30.27;12.00;;;;;;;8.50;100.00;96962.25;4953280;28;20130;-62
2024/03/24 07:25:54;;;;;;;58.22;16.70;;;;;;;8.34;100.00;96952.91;4950444;28;20039;-58
2024/03/24 07:28:19;;;;;;;98.13;64.65;;;;;;;8.32;100.00;96953.81;4953318;28;20074;-62
2024/03/24 07:30:45;;;;;;;28.73;9.45;;;;;;;8.02;100.00;96958.44;4952745;28;20039;-61
2024/03/24 07:33:11;;;;;;;38.47;16.23;;;;;;;7.32;100.00;96943.47;4952648;28;20776;-59
2024/03/24 07:35:36;;;;;;;35.95;14.45;;;;;;;6.93;100.00;96936.81;4951810;28;20531;-59
2024/03/24 07:38:02;;;;;;;181.05;128.68;;;;;;;7.02;100.00;96936.75;4952612;28;20035;-61
2024/03/24 07:40:27;;;;;;;78.22;36.10;;;;;;;6.90;100.00;96949.75;4952322;28;20101;-59
2024/03/24 07:42:53;;;;;;;43.30;17.63;;;;;;;7.26;100.00;96960.75;4953565;28;20019;-60
2024/03/24 07:45:18;;;;;;;33.60;8.88;;;;;;;8.25;100.00;96971.16;4954727;28;20455;-59
2024/03/24 07:47:43;;;;;;;54.33;24.20;;;;;;;10.74;100.00;96971.75;4952269;28;20031;-60
2024/03/24 07:50:09;;;;;;;61.47;20.25;;;;;;;15.79;100.00;96970.59;4951040;28;20042;-61
2024/03/24 07:52:34;;;;;;;25.52;10.57;;;;;;;15.32;100.00;96927.88;4952540;28;20030;-61
2024/03/24 07:54:59;;;;;;;59.42;13.05;;;;;;;12.42;100.00;96934.81;4953387;28;20027;-60
2024/03/24 07:57:25;;;;;;;28.42;11.05;;;;;;;11.44;100.00;96925.13;4953344;28;20042;-60
2024/03/24 07:59:52;;;;;;;31.60;11.55;;;;;;;10.46;100.00;96920.31;4953165;28;20023;-61
2024/03/24 08:02:18;;;;;;;36.17;17.33;;;;;;;9.48;100.00;96925.50;4950144;28;20035;-58
2024/03/24 08:04:43;;;;;;;36.72;12.73;;;;;;;9.62;100.00;96927.00;4953041;28;20396;-60
2024/03/24 08:07:09;;;;;;;54.65;11.05;;;;;;;9.82;100.00;96924.06;4951237;28;20514;-60
2024/03/24 08:09:34;;;;;;;39.70;9.73;;;;;;;10.19;100.00;96924.25;4951846;28;20594;-58
2024/03/24 08:11:59;;;;;;;51.70;13.25;;;;;;;10.36;100.00;96929.16;4950556;28;20459;-60
2024/03/24 08:14:25;;;;;;;32.53;10.80;;;;;;;10.39;100.00;96926.47;4952962;28;20035;-60
2024/03/24 08:16:50;;;;;;;41.45;11.75;;;;;;;9.98;100.00;96929.00;4953063;28;20551;-59
2024/03/24 08:19:15;;;;;;;29.73;11.65;;;;;;;9.66;100.00;96931.25;4953069;28;20082;-62
2024/03/24 08:21:43;;;;;;;55.90;38.28;;;;;;;9.85;100.00;96936.13;4953423;28;20039;-60
2024/03/24 08:24:09;;;;;;;69.50;14.23;;;;;;;9.73;100.00;96932.00;4951623;28;20086;-61
2024/03/24 08:26:34;;;;;;;118.60;19.15;;;;;;;10.55;100.00;96933.09;4945719;28;20559;-62
2024/03/24 08:28:59;;;;;;;77.43;14.73;;;;;;;11.91;100.00;96921.38;4947216;28;20456;-61
2024/03/24 08:31:25;;;;;;;54.67;12.32;;;;;;;14.92;100.00;96915.44;4948726;28;20041;-64
2024/03/24 08:33:50;;;;;;;36.47;6.85;;;;;;;13.86;100.00;96927.00;4948664;28;20048;-64
2024/03/24 08:36:17;;;;;;;31.42;6.25;;;;;;;12.62;100.00;96923.84;4947295;28;20049;-62
2024/03/24 08:38:42;;;;;;;43.92;6.38;;;;;;;16.03;100.00;96904.97;4948047;28;20542;-60
2024/03/24 08:41:12;;;;;;;57.47;7.30;;;;;;;16.08;100.00;96910.88;4949612;28;20514;-63
2024/03/24 08:43:38;;;;;;;29.15;4.93;;;;;;;15.83;100.00;96911.88;4948287;28;20026;-63
2024/03/24 08:46:03;;;;;;;47.40;7.18;;;;;;;13.86;98.71;96919.19;4947592;28;20039;-63
2024/03/24 08:48:28;;;;;;;20.88;5.35;;;;;;;13.18;100.00;96918.72;4948984;28;20027;-61
2024/03/24 08:50:54;;;;;;;21.63;5.13;;;;;;;12.11;100.00;96926.94;4949351;28;20049;-63
2024/03/24 08:53:19;;;;;;;24.70;5.50;;;;;;;11.85;100.00;96923.22;4950390;28;20015;-64
2024/03/24 08:55:45;;;;;;;36.00;10.48;;;;;;;10.72;100.00;96907.66;4947262;28;20466;-62
2024/03/24 08:58:10;;;;;;;56.05;7.53;;;;;;;10.91;100.00;96913.31;4947589;28;20058;-62
2024/03/24 09:00:36;;;;;;;50.53;6.75;;;;;;;10.19;100.00;96921.66;4955041;28;20102;-59
2024/03/24 09:03:01;;;;;;;64.90;16.25;;;;;;;10.08;100.00;96914.06;4952690;28;20046;-63
2024/03/24 09:05:26;;;;;;;38.75;7.18;;;;;;;10.27;100.00;96912.84;4952511;28;20039;-62
2024/03/24 09:07:52;;;;;;;26.50;4.68;;;;;;;9.91;100.00;96920.44;4953591;28;20055;-58
2024/03/24 09:10:17;;;;;;;43.38;16.10;;;;;;;9.97;100.00;96915.13;4952501;28;20030;-59
2024/03/24 09:12:42;;;;;;;45.85;6.93;;;;;;;10.33;100.00;96916.19;4951167;28;20026;-63
2024/03/24 09:15:08;;;;;;;41.67;7.13;;;;;;;10.12;100.00;96910.53;4952668;28;20285;-61
2024/03/24 09:17:34;;;;;;;44.00;8.32;;;;;;;10.03;100.00;96909.81;4953144;28;20106;-62
2024/03/24 09:19:59;;;;;;;64.95;10.95;;;;;;;9.71;100.00;96915.59;4951076;28;20026;-60
2024/03/24 09:22:25;;;;;;;44.13;7.32;;;;;;;9.60;100.00;96921.84;4951185;28;20098;-61
2024/03/24 09:24:50;;;;;;;49.58;8.20;;;;;;;9.91;100.00;96920.44;4953597;28;20413;-63
2024/03/24 09:27:15;;;;;;;55.40;16.73;;;;;;;9.76;100.00;96922.41;4950867;28;22027;-61
2024/03/24 09:29:41;;;;;;;36.63;7.53;;;;;;;9.76;100.00;96918.94;4951483;28;20041;-61
2024/03/24 09:32:06;;;;;;;74.90;14.02;;;;;;;9.08;100.00;96926.94;4950177;28;20128;-60
2024/03/24 09:34:31;;;;;;;39.45;6.85;;;;;;;9.50;100.00;96930.63;4953061;28;20029;-61
2024/03/24 09:36:57;;;;;;;28.45;11.25;;;;;;;9.05;100.00;96923.56;4950211;28;20035;-59
2024/03/24 09:39:22;;;;;;;30.45;6.10;;;;;;;8.79;100.00;96915.25;4953092;28;20051;-59
2024/03/24 09:41:48;;;;;;;45.30;11.02;;;;;;;9.37;100.00;96917.88;4953236;28;20499;-59
2024/03/24 09:44:15;;;;;;;57.97;8.20;;;;;;;8.95;100.00;96928.84;4950618;28;20521;-65
2024/03/24 09:46:42;;;;;;;34.20;6.18;;;;;;;9.23;100.00;96933.66;4952159;28;20046;-63
2024/03/24 09:49:15;;;;;;;64.30;12.43;;;;;;;9.09;100.00;96927.78;4953517;28;20551;-65
2024/03/24 09:51:42;;;;;;;46.00;6.68;;;;;;;8.89;100.00;96934.13;4949688;28;20043;-62
2024/03/24 09:54:11;;;;;;;84.68;10.13;;;;;;;9.27;100.00;96918.88;4949846;28;20081;-62
2024/03/24 09:56:37;;;;;;;30.75;6.72;;;;;;;9.45;100.00;96932.44;4952166;28;20035;-65
2024/03/24 09:59:04;;;;;;;54.80;8.93;;;;;;;9.02;100.00;96934.81;4951685;28;20054;-61
2024/03/24 10:01:30;;;;;;;38.63;8.40;;;;;;;8.81;100.00;96941.16;4950170;28;20035;-61
2024/03/24 10:03:56;;;;;;;32.75;7.03;;;;;;;8.63;100.00;96937.91;4950863;28;20023;-62
2024/03/24 10:06:24;;;;;;;35.03;7.57;;;;;;;8.80;100.00;96947.22;4949430;28;20045;-61
2024/03/24 10:08:50;;;;;;;53.63;13.43;;;;;;;8.57;100.00;96935.38;4951063;28;20023;-62
2024/03/24 10:11:29;;;;;;;85.15;26.10;;;;;;;8.92;100.00;96933.22;4947970;28;20043;-63
2024/03/24 10:13:56;;;;;;;46.25;20.75;;;;;;;8.52;100.00;96931.97;4952435;28;20063;-62
2024/03/24 10:16:22;;;;;;;26.60;8.43;;;;;;;8.81;100.00;96928.19;4950655;28;20066;-59
2024/03/24 10:18:48;;;;;;;40.67;9.40;;;;;;;8.88;100.00;96926.38;4952514;28;20031;-62
2024/03/24 10:21:14;;;;;;;85.80;18.35;;;;;;;9.11;100.00;96929.50;4950495;28;20039;-59
2024/03/24 10:23:40;;;;;;;62.25;10.50;;;;;;;8.97;100.00;96921.91;4951036;28;20593;-63
2024/03/24 10:26:06;;;;;;;78.15;12.65;;;;;;;9.00;100.00;96923.59;4949546;28;20047;-59
2024/03/24 10:28:32;;;;;;;55.78;11.27;;;;;;;9.30;100.00;96915.38;4950634;28;20023;-62
2024/03/24 10:31:07;;;;;;;49.05;14.82;;;;;;;8.99;100.00;96920.16;4951064;28;20042;-63
2024/03/24 10:33:38;;;;;;;44.67;10.73;;;;;;;9.16;100.00;96908.66;4949741;28;20046;-61
2024/03/24 10:36:05;;;;;;;59.97;15.48;;;;;;;9.76;100.00;96911.16;4947906;28;20039;-60
2024/03/24 10:38:31;;;;;;;50.42;12.18;;;;;;;9.27;100.00;96907.66;4949604;28;20026;-60
2024/03/24 10:40:57;;;;;;;58.45;17.92;;;;;;;9.73;100.00;96911.25;4950705;28;20035;-63
2024/03/24 10:43:24;;;;;;;42.22;10.90;;;;;;;10.10;100.00;96912.31;4952027;28;20023;-63
2024/03/24 10:45:54;;;;;;;51.83;10.70;;;;;;;9.81;100.00;96913.69;4950162;28;20023;-63
2024/03/24 10:48:33;;;;;;;55.15;10.23;;;;;;;9.59;100.00;96916.66;4951963;28;20056;-61
2024/03/24 10:51:00;;;;;;;30.20;12.55;;;;;;;8.97;100.00;96908.94;4952435;28;20495;-60
2024/03/24 10:53:27;;;;;;;36.92;12.65;;;;;;;9.09;100.00;96909.63;4950062;28;20109;-60
2024/03/24 10:55:56;;;;;;;36.65;9.27;;;;;;;9.02;100.00;96908.88;4954148;28;20047;-60
2024/03/24 10:58:22;;;;;;;47.35;19.20;;;;;;;9.06;100.00;96897.56;4951060;28;20037;-60
2024/03/24 11:00:49;;;;;;;37.05;9.93;;;;;;;9.14;100.00;96906.97;4951534;28;20027;-59
2024/03/24 11:03:16;;;;;;;82.55;27.27;;;;;;;9.09;100.00;96902.72;4951086;28;20023;-59
2024/03/24 11:05:44;;;;;;;39.25;11.90;;;;;;;8.97;100.00;96901.16;4950969;28;20042;-62
2024/03/24 11:08:13;;;;;;;71.45;11.05;;;;;;;9.50;100.00;96900.34;4956978;28;20503;-59
2024/03/24 11:10:41;;;;;;;37.00;7.72;;;;;;;9.10;100.00;96901.00;4952426;28;20038;-60
2024/03/24 11:13:07;;;;;;;60.38;10.10;;;;;;;9.51;100.00;96896.03;4950191;28;20067;-60